Logo AVAMET
Benvolgut visitant, si us plau, ingressa Recuperar contrasenya
AVAMET paisatges

Xacarella El Copo

Dades diàries. Acumulats / Últims 30 dies disponibles

Data Temperatura (°C) Humitat rel. (%) Pressió rel. (hPa) Vent (km/h) Precipitació
Mínima Mitjana Màxima Amplitud
tèrmica
Mínima Mitjana Màxima Mínima Mitjana Màxima Predom. Mitjana Ràfega
màxima
Total
(mm)
Índex-n
Mínima Mitjana Màxima Mínima Mitjana Màxima n
0 a 1
P0 max
mm 5'
Dades mensuals acumulades fins l'últim dia disponible
03/2020 7,3 10,3 15,7 14,9 11,3 19,7 28,8 21,5 0 68 96 1.002 1.015 1.025   10,4 74,0 102,4
Dades anuals acumulades fins l'últim dia disponible
2020 3,6 8,4 15,7 13,8 10,1 19,5 28,8 25,2 0 71 97 1.002 1.019 1.033   8,6 74,0 166,2
Últims 30 dies disponibles
30-03-2020 9,4     13,0     16,0 6,6 74 80 91 1.009 1.009 1.011 ESE 13,4 41,8 0,0
29-03-2020 8,7     15,5     21,2 12,5 40 62 86 1.012 1.014 1.016 OSO 11,0 38,6 0,0
28-03-2020 8,4     12,1     16,8 8,4 48 73 91 1.013 1.016 1.018 OSO 7,3 29,0 1,0
27-03-2020 9,2     9,9     11,3 2,1 77 86 92 1.009 1.011 1.013 ESE 7,2 33,8 6,1 0,51 0,50
26-03-2020 8,3     14,0     19,9 11,6 30 67 96 1.004 1.007 1.012 S 12,2 48,3 1,3
25-03-2020 9,7     11,8     14,2 4,5 0 77 93 1.013 1.014 1.014 SE 6,0 25,7 0,32 0,50
24-03-2020 11,6     12,6     13,8 2,2 86 93 95 1.011 1.012 1.014 E 14,7 48,3 47,5 0,25 2,60
23-03-2020 10,8     13,1     16,7 5,9 79 91 95 1.011 1.012 1.013 S 9,6 43,4 10,9 0,40 1,40
22-03-2020 8,8     11,6     15,2 6,4 73 88 94 1.008 1.010 1.012 OSO 4,6 22,5 16,8 0,22 1,10
21-03-2020 10,9     13,2     16,7 5,8 65 84 93 1.009 1.011 1.014 SO 7,0 30,6 16,8 0,24 1,60
20-03-2020 10,8     13,8     16,2 5,4 63 77 91 1.012 1.015 1.017 ESE 10,1 33,8 0,0
19-03-2020 9,4     14,1     17,2 7,8 67 79 90 1.017 1.019 1.021 SE 10,7 38,6 0,0
18-03-2020 9,6     14,9     18,7 9,1 57 75 92 1.020 1.022 1.024 SE 12,0 51,5
17-03-2020 8,8     12,4     17,3 8,5 0 82 92 1.017 1.020 1.023 SO 6,9 41,8 1,5
16-03-2020 9,7     12,4     18,1 8,4 64 75 83 1.009 1.012 1.017 ONO 10,4 38,6 0,5
15-03-2020 10,2     13,8     16,9 6,7 71 88 94 1.016 1.017 1.018 ESE 2,5 17,7 0,0
14-03-2020 11,1     14,8     20,4 9,3 60 81 91 1.016 1.017 1.019 S 5,2 30,6 0,0
13-03-2020 9,4     15,5     22,7 13,3 42 68 87 1.013 1.016 1.018 S 6,8 33,8 0,0
12-03-2020 9,4     16,1     25,7 16,3 39 70 93 1.014 1.017 1.020 SSO 5,2 19,3 0,0
11-03-2020 10,7     18,5     28,8 18,1 29 62 88 1.018 1.020 1.023 SSO 6,8 27,4 0,0
10-03-2020 8,7     15,5     20,8 12,1 35 64 90 1.020 1.022 1.025 S 7,4 32,2 0,0
09-03-2020 15,2     19,0     23,3 8,1 24 39 57 1.018 1.020 1.022 OSO 12,4 46,7 0,0
08-03-2020 7,3     15,4     23,8 16,5 24 56 84 1.018 1.021 1.023 O 10,4 37,0 0,0
07-03-2020 10,7     14,7     20,3 9,6 31 43 73 1.019 1.020 1.023 SSO 13,4 48,3 0,0
06-03-2020 13,1     15,9     18,7 5,6 25 40 54 1.012 1.014 1.020 O 19,7 72,4 0,0
05-03-2020 13,5     18,5     25,7 12,2 35 51 67 1.006 1.011 1.015 ONO 15,8 61,1 0,0
04-03-2020 15,7     19,9     24,4 8,7 41 53 64 1.014 1.016 1.018 OSO 14,5 41,8 0,0
03-03-2020 8,6     16,5     24,1 15,5 33 49 70 1.011 1.015 1.017 O 16,4 56,3 0,0
02-03-2020 13,8     19,4     25,3 11,5 25 43 62 1.002 1.007 1.016 ONO 25,5 74,0 0,0
01-03-2020 8,0     18,1     -8,0 41 57 75 1.011 1.012 1.014 O 7,6 29,0 0,0
Últims 13 mesos disponibles
02/2020 3,6 8,0 12,2 14,5 15,4 21,7 26,8 23,2 41 72 88 1.013 1.023 1.031 OSO 7,6 45,1 2,0
01/2020 4,1 6,6 11,5 11,5 10,1 16,8 21,9 17,8 60 74 90 1.011 1.021 1.028 O 7,4 61,2 61,8
12/2019 5,8 9,7 16,4 13,4 10,3 18,0 22,9 17,1 43 74 92 1.003 1.016 1.030 O 8,7 66,0 32,2
11/2019 6,2 11,2 18,9 15,4 15,1 20,0 27,9 21,7 43 59 92 999 1.010 1.017 ONO 11,8 82,1 10,2
10/2019 11,9 17,3 24,1 22,1 22,1 27,3 34,5 22,6 37 70 86 1.008 1.015 1.019 SSW 7,3 41,8 0,2
09/2019 16,0 19,7 22,2 23,7 21,4 28,7 33,9 17,9 45 76 91 1.008 1.014 1.019 SSW 7,5 56,3 189,4
08/2019 19,1 21,5 25,1 26,4 23,8 31,9 40,8 21,7 50 73 93 1.008 1.013 1.017 SSW 7,8 45,1 33,2
07/2019 18,6 21,3 25,3 27,0 29,1 32,7 39,5 20,9 32 64 76 1.004 1.011 1.017 ESE 9,2 54,7 0,0
06/2019 11,9 16,9 21,2 23,1 23,4 28,9 35,1 23,2 40 61 76 1.007 1.013 1.020 SSW 9,3 51,5 1,2
05/2019 10,9 13,9 19,6 19,4 19,8 24,9 31,1 20,2 46 67 79 1.004 1.013 1.023 S 8,8 51,5 1,8
04/2019 6,8 11,1 14,2 15,7 14,1 20,9 28,7 21,9 45 67 92 998 1.011 1.023 WNW 9,5 74,0 111,2
03/2019 3,8 7,5 13,1 13,9 13,7 20,5 28,4 24,6 39 63 90 1.009 1.020 1.028 SSW 7,7 57,9 19,4
02/2019 3,7 6,3 11,6 12,1 13,8 18,8 26,7 23,0 33 63 82 995 1.022 1.030 SSW 8,5 83,7 0,0
Tots els anys disponibles
2019 0,8 13,6 25,3 18,8 10,3 24,3 40,8 40,0 32 66 93 995 1.014 1.030 SSW 8,8 83,7 406,0
Temperatura (°C)
Humitat relativa (%)
Velocitat del vent i ràfega màxima (km/h)
Direcció del vent (°)
Pressió (hPa)
Precipitació (mm)
Nota sobre les dades: s'avisa a l'usuari de la provisionalitat i no oficialitat d'aquestes dades
Logo AVAMET blanc
Web allotjada a Sollutia
Llicència de Creative CommonsLa web d'AVAMET i els seus continguts estan subjectes a una llicència de
Reconeixement - No Comercial - Compartir igual
Últimes estacions:  Altea - Com. Regants (Soci), Almoines (Inforatge), Beniparrell (Inforatge), Albal (Inforatge), Almussafes - Parc Industrial (Inforatge), La Vilavella (Soci), la Serratella (soci) - - -